Terminal Aerodrome Forecast
Issued by NWS Bismarck, ND

Home | Current Version | Previous Version | Text Only | Print | Product List | Glossary Off
Versions: 1 2 3 4 5 6 7 8 9 10 11 12 13

000
FTUS43 KBIS 280530
TAFISN
TAF
KISN 280530Z 2806/2906 15005KT P6SM SCT120 BKN250
     FM281600 22008KT P6SM SCT120 SCT250
     FM281800 25010KT P6SM SCT250
     FM282100 28012KT P6SM SCT250
     FM290100 31012KT P6SM SCT100 BKN250
     FM290400 34008KT P6SM SCT080 SCT100 BKN250=

USA.gov is the U.S. government's official web portal to all federal, state and local government web resources and services.